San Anselmo, California
Current Conditions -  °F | °C
As of 8:55 AM on Thursday 30 Oct 2014 (Local Time) from KDVO Reporting Station
NA  
Wind Chill: 55°   Ceiling: NA
Heat Index: 55°   Visibility: NA
Dew Point: 52°   Wind: 3mph
Humidity: 88%   Direction: 160°SSE
Pressure: 29.96"   Gusts: NA
Location:  37.97°N, 122.56°W
Report Text: KDVO 301555Z AUTO 16003KT 13/11 A2996 RMK AO2
Loading
Personal Weather Stations






























Interactive Weather Map
Tropical Storm Tracking
New forecast layout! Learn more

10-Day Weather Forecast

Advertisements
Track Severe Weather on mobile